sensor_id;sensor_type;location;lat;lon;timestamp;temperature;humidity
30572;DHT22;17348;50.948;10.696;2024-01-16T00:02:12;1.20;99.90
30572;DHT22;17348;50.948;10.696;2024-01-16T00:05:14;1.20;99.90
30572;DHT22;17348;50.948;10.696;2024-01-16T00:08:16;1.20;99.90
30572;DHT22;17348;50.948;10.696;2024-01-16T00:11:22;1.30;99.90
30572;DHT22;17348;50.948;10.696;2024-01-16T00:14:24;1.30;99.90
30572;DHT22;17348;50.948;10.696;2024-01-16T00:17:28;1.20;99.90
30572;DHT22;17348;50.948;10.696;2024-01-16T00:20:30;1.20;99.90
30572;DHT22;17348;50.948;10.696;2024-01-16T00:23:32;1.30;99.90
30572;DHT22;17348;50.948;10.696;2024-01-16T00:26:35;1.30;99.90
30572;DHT22;17348;50.948;10.696;2024-01-16T00:29:38;1.30;99.90
30572;DHT22;17348;50.948;10.696;2024-01-16T00:32:41;1.30;99.90
30572;DHT22;17348;50.948;10.696;2024-01-16T00:35:44;1.40;99.90
30572;DHT22;17348;50.948;10.696;2024-01-16T00:38:46;1.30;99.90
30572;DHT22;17348;50.948;10.696;2024-01-16T00:41:49;1.30;99.90
30572;DHT22;17348;50.948;10.696;2024-01-16T00:44:51;1.30;99.90
30572;DHT22;17348;50.948;10.696;2024-01-16T00:47:55;1.30;99.90
30572;DHT22;17348;50.948;10.696;2024-01-16T00:50:57;1.30;99.90
30572;DHT22;17348;50.948;10.696;2024-01-16T00:53:59;1.30;99.90
30572;DHT22;17348;50.948;10.696;2024-01-16T00:57:02;1.30;99.90
30572;DHT22;17348;50.948;10.696;2024-01-16T01:00:05;1.30;99.90
30572;DHT22;17348;50.948;10.696;2024-01-16T01:03:12;1.30;99.90
30572;DHT22;17348;50.948;10.696;2024-01-16T01:06:14;1.30;99.90
30572;DHT22;17348;50.948;10.696;2024-01-16T01:09:17;1.30;99.90
30572;DHT22;17348;50.948;10.696;2024-01-16T01:12:19;1.30;99.90
30572;DHT22;17348;50.948;10.696;2024-01-16T01:15:22;1.30;99.90
30572;DHT22;17348;50.948;10.696;2024-01-16T01:18:25;1.30;99.90
30572;DHT22;17348;50.948;10.696;2024-01-16T01:21:29;1.30;99.90
30572;DHT22;17348;50.948;10.696;2024-01-16T01:24:32;1.30;99.90
30572;DHT22;17348;50.948;10.696;2024-01-16T01:27:34;1.30;99.90
30572;DHT22;17348;50.948;10.696;2024-01-16T01:30:36;1.30;99.90
30572;DHT22;17348;50.948;10.696;2024-01-16T01:33:40;1.30;99.90
30572;DHT22;17348;50.948;10.696;2024-01-16T01:36:43;1.30;99.90
30572;DHT22;17348;50.948;10.696;2024-01-16T01:39:45;1.20;99.90
30572;DHT22;17348;50.948;10.696;2024-01-16T01:42:48;1.30;99.90
30572;DHT22;17348;50.948;10.696;2024-01-16T01:45:59;1.30;99.90
30572;DHT22;17348;50.948;10.696;2024-01-16T01:49:09;1.20;99.90
30572;DHT22;17348;50.948;10.696;2024-01-16T01:52:13;1.20;99.90
30572;DHT22;17348;50.948;10.696;2024-01-16T01:55:16;1.20;99.90
30572;DHT22;17348;50.948;10.696;2024-01-16T01:58:18;1.20;99.90
30572;DHT22;17348;50.948;10.696;2024-01-16T02:01:21;1.10;99.90
30572;DHT22;17348;50.948;10.696;2024-01-16T02:04:26;1.10;99.90
30572;DHT22;17348;50.948;10.696;2024-01-16T02:07:31;1.10;99.90
30572;DHT22;17348;50.948;10.696;2024-01-16T02:10:36;1.10;99.90
30572;DHT22;17348;50.948;10.696;2024-01-16T02:13:39;1.00;99.90
30572;DHT22;17348;50.948;10.696;2024-01-16T02:16:43;1.00;99.90
30572;DHT22;17348;50.948;10.696;2024-01-16T02:19:47;1.00;99.90
30572;DHT22;17348;50.948;10.696;2024-01-16T02:22:52;0.90;99.90
30572;DHT22;17348;50.948;10.696;2024-01-16T02:25:59;0.90;99.90
30572;DHT22;17348;50.948;10.696;2024-01-16T02:29:04;0.80;99.90
30572;DHT22;17348;50.948;10.696;2024-01-16T02:32:06;0.80;99.90
30572;DHT22;17348;50.948;10.696;2024-01-16T02:35:09;0.80;99.90
30572;DHT22;17348;50.948;10.696;2024-01-16T02:38:11;0.80;99.90
30572;DHT22;17348;50.948;10.696;2024-01-16T02:41:15;0.80;99.90
30572;DHT22;17348;50.948;10.696;2024-01-16T02:44:18;0.90;99.90
30572;DHT22;17348;50.948;10.696;2024-01-16T02:47:20;0.80;99.90
30572;DHT22;17348;50.948;10.696;2024-01-16T02:50:22;0.80;99.90
30572;DHT22;17348;50.948;10.696;2024-01-16T02:53:25;0.80;99.90
30572;DHT22;17348;50.948;10.696;2024-01-16T02:56:30;0.80;99.90
30572;DHT22;17348;50.948;10.696;2024-01-16T02:59:32;0.70;99.90
30572;DHT22;17348;50.948;10.696;2024-01-16T03:02:35;0.70;99.90
30572;DHT22;17348;50.948;10.696;2024-01-16T03:05:37;0.60;99.90
30572;DHT22;17348;50.948;10.696;2024-01-16T03:08:39;0.50;99.90
30572;DHT22;17348;50.948;10.696;2024-01-16T03:11:43;0.50;99.90
30572;DHT22;17348;50.948;10.696;2024-01-16T03:14:45;0.50;99.90
30572;DHT22;17348;50.948;10.696;2024-01-16T03:17:48;0.40;99.90
30572;DHT22;17348;50.948;10.696;2024-01-16T03:20:51;0.50;99.90
30572;DHT22;17348;50.948;10.696;2024-01-16T03:23:54;0.50;99.90
30572;DHT22;17348;50.948;10.696;2024-01-16T03:26:57;0.50;99.90
30572;DHT22;17348;50.948;10.696;2024-01-16T03:30:00;0.50;99.90
30572;DHT22;17348;50.948;10.696;2024-01-16T03:33:03;0.50;99.90
30572;DHT22;17348;50.948;10.696;2024-01-16T03:36:06;0.60;99.90
30572;DHT22;17348;50.948;10.696;2024-01-16T03:39:08;0.60;99.90
30572;DHT22;17348;50.948;10.696;2024-01-16T03:42:12;0.50;99.90
30572;DHT22;17348;50.948;10.696;2024-01-16T03:45:14;0.50;99.90
30572;DHT22;17348;50.948;10.696;2024-01-16T03:48:17;0.60;99.90
30572;DHT22;17348;50.948;10.696;2024-01-16T03:51:19;0.60;99.90
30572;DHT22;17348;50.948;10.696;2024-01-16T03:54:21;0.60;99.90
30572;DHT22;17348;50.948;10.696;2024-01-16T03:57:25;0.60;99.90
30572;DHT22;17348;50.948;10.696;2024-01-16T04:00:27;0.60;99.90
30572;DHT22;17348;50.948;10.696;2024-01-16T04:03:30;0.50;99.90
30572;DHT22;17348;50.948;10.696;2024-01-16T04:06:32;0.40;99.90
30572;DHT22;17348;50.948;10.696;2024-01-16T04:09:34;0.40;99.90
30572;DHT22;17348;50.948;10.696;2024-01-16T04:12:38;0.40;99.90
30572;DHT22;17348;50.948;10.696;2024-01-16T04:15:40;0.40;99.90
30572;DHT22;17348;50.948;10.696;2024-01-16T04:18:43;0.20;99.90
30572;DHT22;17348;50.948;10.696;2024-01-16T04:21:45;0.20;99.90
30572;DHT22;17348;50.948;10.696;2024-01-16T04:24:48;0.20;99.90
30572;DHT22;17348;50.948;10.696;2024-01-16T04:27:51;0.10;99.90
30572;DHT22;17348;50.948;10.696;2024-01-16T04:30:54;0.00;99.90
30572;DHT22;17348;50.948;10.696;2024-01-16T04:33:56;0.00;99.90
30572;DHT22;17348;50.948;10.696;2024-01-16T04:36:58;0.00;99.90
30572;DHT22;17348;50.948;10.696;2024-01-16T04:40:01;0.00;99.90
30572;DHT22;17348;50.948;10.696;2024-01-16T04:43:04;0.10;99.90
30572;DHT22;17348;50.948;10.696;2024-01-16T04:46:07;0.00;99.90
30572;DHT22;17348;50.948;10.696;2024-01-16T04:49:10;0.00;99.90
30572;DHT22;17348;50.948;10.696;2024-01-16T04:52:13;0.00;99.90
30572;DHT22;17348;50.948;10.696;2024-01-16T04:55:15;0.00;99.90
30572;DHT22;17348;50.948;10.696;2024-01-16T04:58:19;0.00;99.90
30572;DHT22;17348;50.948;10.696;2024-01-16T05:01:21;0.00;99.90
30572;DHT22;17348;50.948;10.696;2024-01-16T05:04:23;-0.10;99.90
30572;DHT22;17348;50.948;10.696;2024-01-16T05:07:26;-0.10;99.90
30572;DHT22;17348;50.948;10.696;2024-01-16T05:10:28;-0.10;99.90
30572;DHT22;17348;50.948;10.696;2024-01-16T05:13:32;-0.20;99.90
30572;DHT22;17348;50.948;10.696;2024-01-16T05:16:35;-0.20;99.90
30572;DHT22;17348;50.948;10.696;2024-01-16T05:19:37;-0.20;99.90
30572;DHT22;17348;50.948;10.696;2024-01-16T05:22:40;-0.20;99.90
30572;DHT22;17348;50.948;10.696;2024-01-16T05:25:42;-0.20;99.90
30572;DHT22;17348;50.948;10.696;2024-01-16T05:28:45;-0.20;99.90
30572;DHT22;17348;50.948;10.696;2024-01-16T05:31:48;-0.20;99.90
30572;DHT22;17348;50.948;10.696;2024-01-16T05:34:50;-0.20;99.90
30572;DHT22;17348;50.948;10.696;2024-01-16T05:37:52;-0.20;99.90
30572;DHT22;17348;50.948;10.696;2024-01-16T05:40:55;-0.20;99.90
30572;DHT22;17348;50.948;10.696;2024-01-16T05:43:58;-0.30;99.90
30572;DHT22;17348;50.948;10.696;2024-01-16T05:47:01;-0.30;99.90
30572;DHT22;17348;50.948;10.696;2024-01-16T05:50:04;-0.30;99.90
30572;DHT22;17348;50.948;10.696;2024-01-16T05:53:07;-0.30;99.90
30572;DHT22;17348;50.948;10.696;2024-01-16T05:56:09;-0.30;99.90
30572;DHT22;17348;50.948;10.696;2024-01-16T05:59:16;-0.40;99.90
30572;DHT22;17348;50.948;10.696;2024-01-16T06:02:18;-0.30;99.90
30572;DHT22;17348;50.948;10.696;2024-01-16T06:05:20;-0.30;99.90
30572;DHT22;17348;50.948;10.696;2024-01-16T06:08:23;-0.40;99.90
30572;DHT22;17348;50.948;10.696;2024-01-16T06:11:30;-0.30;99.90
30572;DHT22;17348;50.948;10.696;2024-01-16T06:14:34;-0.30;99.90
30572;DHT22;17348;50.948;10.696;2024-01-16T06:17:38;-0.40;99.90
30572;DHT22;17348;50.948;10.696;2024-01-16T06:20:40;-0.30;99.90
30572;DHT22;17348;50.948;10.696;2024-01-16T06:23:42;-0.30;99.90
30572;DHT22;17348;50.948;10.696;2024-01-16T06:26:44;-0.40;99.90
30572;DHT22;17348;50.948;10.696;2024-01-16T06:29:48;-0.30;99.90
30572;DHT22;17348;50.948;10.696;2024-01-16T06:32:52;-0.30;99.90
30572;DHT22;17348;50.948;10.696;2024-01-16T06:35:54;-0.30;99.90
30572;DHT22;17348;50.948;10.696;2024-01-16T06:38:57;-0.30;99.90
30572;DHT22;17348;50.948;10.696;2024-01-16T06:41:59;-0.30;99.90
30572;DHT22;17348;50.948;10.696;2024-01-16T06:45:03;-0.30;99.90
30572;DHT22;17348;50.948;10.696;2024-01-16T06:48:06;-0.30;99.90
30572;DHT22;17348;50.948;10.696;2024-01-16T06:51:08;-0.30;99.90
30572;DHT22;17348;50.948;10.696;2024-01-16T06:54:11;-0.30;99.90
30572;DHT22;17348;50.948;10.696;2024-01-16T06:57:13;-0.30;99.90
30572;DHT22;17348;50.948;10.696;2024-01-16T07:00:18;-0.30;99.90
30572;DHT22;17348;50.948;10.696;2024-01-16T07:03:23;-0.30;99.90
30572;DHT22;17348;50.948;10.696;2024-01-16T07:06:26;-0.30;99.90
30572;DHT22;17348;50.948;10.696;2024-01-16T07:09:29;-0.40;99.90
30572;DHT22;17348;50.948;10.696;2024-01-16T07:12:31;-0.40;99.90
30572;DHT22;17348;50.948;10.696;2024-01-16T07:15:35;-0.40;99.90
30572;DHT22;17348;50.948;10.696;2024-01-16T07:18:38;-0.40;99.90
30572;DHT22;17348;50.948;10.696;2024-01-16T07:21:41;-0.30;99.90
30572;DHT22;17348;50.948;10.696;2024-01-16T07:24:45;-0.30;99.90
30572;DHT22;17348;50.948;10.696;2024-01-16T07:27:48;-0.10;99.90
30572;DHT22;17348;50.948;10.696;2024-01-16T07:30:54;-0.10;99.90
30572;DHT22;17348;50.948;10.696;2024-01-16T07:33:56;0.00;99.90
30572;DHT22;17348;50.948;10.696;2024-01-16T07:36:58;0.10;99.90
30572;DHT22;17348;50.948;10.696;2024-01-16T07:40:00;0.20;99.90
30572;DHT22;17348;50.948;10.696;2024-01-16T07:43:03;0.30;99.90
30572;DHT22;17348;50.948;10.696;2024-01-16T07:46:06;0.40;99.90
30572;DHT22;17348;50.948;10.696;2024-01-16T07:49:09;0.40;99.90
30572;DHT22;17348;50.948;10.696;2024-01-16T07:52:11;0.50;99.90
30572;DHT22;17348;50.948;10.696;2024-01-16T07:55:14;0.60;99.90
30572;DHT22;17348;50.948;10.696;2024-01-16T07:58:16;0.60;99.90
30572;DHT22;17348;50.948;10.696;2024-01-16T08:01:23;0.70;99.90
30572;DHT22;17348;50.948;10.696;2024-01-16T08:04:25;0.70;99.90
30572;DHT22;17348;50.948;10.696;2024-01-16T08:07:27;0.80;99.90
30572;DHT22;17348;50.948;10.696;2024-01-16T08:10:29;0.90;99.90
30572;DHT22;17348;50.948;10.696;2024-01-16T08:13:32;0.90;99.90
30572;DHT22;17348;50.948;10.696;2024-01-16T08:16:36;1.00;99.90
30572;DHT22;17348;50.948;10.696;2024-01-16T08:19:38;1.00;99.90
30572;DHT22;17348;50.948;10.696;2024-01-16T08:22:40;1.10;99.90
30572;DHT22;17348;50.948;10.696;2024-01-16T08:25:43;1.10;99.90
30572;DHT22;17348;50.948;10.696;2024-01-16T08:28:45;1.20;99.90
30572;DHT22;17348;50.948;10.696;2024-01-16T08:31:49;1.20;99.90
30572;DHT22;17348;50.948;10.696;2024-01-16T08:34:51;1.30;99.90
30572;DHT22;17348;50.948;10.696;2024-01-16T08:37:54;1.30;99.90
30572;DHT22;17348;50.948;10.696;2024-01-16T08:40:56;1.40;99.90
30572;DHT22;17348;50.948;10.696;2024-01-16T08:43:59;1.40;99.90
30572;DHT22;17348;50.948;10.696;2024-01-16T08:47:02;1.40;99.90
30572;DHT22;17348;50.948;10.696;2024-01-16T08:50:07;1.40;99.90
30572;DHT22;17348;50.948;10.696;2024-01-16T08:53:10;1.50;99.90
30572;DHT22;17348;50.948;10.696;2024-01-16T08:56:12;1.50;99.90
30572;DHT22;17348;50.948;10.696;2024-01-16T08:59:19;1.40;99.90
30572;DHT22;17348;50.948;10.696;2024-01-16T09:02:22;1.40;99.90
30572;DHT22;17348;50.948;10.696;2024-01-16T09:05:29;1.50;99.90
30572;DHT22;17348;50.948;10.696;2024-01-16T09:08:32;1.50;99.90
30572;DHT22;17348;50.948;10.696;2024-01-16T09:11:34;1.60;99.90
30572;DHT22;17348;50.948;10.696;2024-01-16T09:14:38;1.50;99.90
30572;DHT22;17348;50.948;10.696;2024-01-16T09:17:43;1.70;99.90
30572;DHT22;17348;50.948;10.696;2024-01-16T09:20:48;1.70;99.90
30572;DHT22;17348;50.948;10.696;2024-01-16T09:23:53;1.80;99.90
30572;DHT22;17348;50.948;10.696;2024-01-16T09:26:56;1.90;99.90
30572;DHT22;17348;50.948;10.696;2024-01-16T09:29:59;1.90;99.90
30572;DHT22;17348;50.948;10.696;2024-01-16T09:33:04;1.90;99.90
30572;DHT22;17348;50.948;10.696;2024-01-16T09:36:07;2.00;99.90
30572;DHT22;17348;50.948;10.696;2024-01-16T09:39:10;2.00;99.90
30572;DHT22;17348;50.948;10.696;2024-01-16T09:42:13;2.00;99.90
30572;DHT22;17348;50.948;10.696;2024-01-16T09:45:19;2.00;99.90
30572;DHT22;17348;50.948;10.696;2024-01-16T09:48:24;2.10;99.90
30572;DHT22;17348;50.948;10.696;2024-01-16T09:51:28;2.10;99.90
30572;DHT22;17348;50.948;10.696;2024-01-16T09:54:30;2.10;99.90
30572;DHT22;17348;50.948;10.696;2024-01-16T09:57:32;2.20;99.90
30572;DHT22;17348;50.948;10.696;2024-01-16T10:00:36;2.30;99.90
30572;DHT22;17348;50.948;10.696;2024-01-16T10:03:41;2.40;99.90
30572;DHT22;17348;50.948;10.696;2024-01-16T10:06:46;2.50;99.90
30572;DHT22;17348;50.948;10.696;2024-01-16T10:09:49;2.40;99.90
30572;DHT22;17348;50.948;10.696;2024-01-16T10:12:51;2.50;99.90
30572;DHT22;17348;50.948;10.696;2024-01-16T10:15:55;2.60;99.90
30572;DHT22;17348;50.948;10.696;2024-01-16T10:19:04;2.60;99.90
30572;DHT22;17348;50.948;10.696;2024-01-16T10:22:07;2.70;99.90
30572;DHT22;17348;50.948;10.696;2024-01-16T10:25:10;2.70;99.90
30572;DHT22;17348;50.948;10.696;2024-01-16T10:28:20;2.70;99.90
30572;DHT22;17348;50.948;10.696;2024-01-16T10:31:29;2.70;99.90
30572;DHT22;17348;50.948;10.696;2024-01-16T10:34:33;2.80;99.90
30572;DHT22;17348;50.948;10.696;2024-01-16T10:37:42;2.90;99.90
30572;DHT22;17348;50.948;10.696;2024-01-16T10:40:45;2.90;99.90
30572;DHT22;17348;50.948;10.696;2024-01-16T10:43:47;2.90;99.90
30572;DHT22;17348;50.948;10.696;2024-01-16T10:46:49;3.00;99.90
30572;DHT22;17348;50.948;10.696;2024-01-16T10:49:53;3.00;99.90
30572;DHT22;17348;50.948;10.696;2024-01-16T10:52:59;3.20;99.90
30572;DHT22;17348;50.948;10.696;2024-01-16T10:56:02;3.30;99.90
30572;DHT22;17348;50.948;10.696;2024-01-16T10:59:15;3.40;99.90
30572;DHT22;17348;50.948;10.696;2024-01-16T11:02:20;3.40;99.90
30572;DHT22;17348;50.948;10.696;2024-01-16T11:05:27;3.40;99.90
30572;DHT22;17348;50.948;10.696;2024-01-16T11:08:31;3.40;99.90
30572;DHT22;17348;50.948;10.696;2024-01-16T11:11:34;3.40;99.90
30572;DHT22;17348;50.948;10.696;2024-01-16T11:14:39;3.40;99.90
30572;DHT22;17348;50.948;10.696;2024-01-16T11:17:44;3.40;99.90
30572;DHT22;17348;50.948;10.696;2024-01-16T11:20:48;3.40;99.90
30572;DHT22;17348;50.948;10.696;2024-01-16T11:23:51;3.40;99.90
30572;DHT22;17348;50.948;10.696;2024-01-16T11:26:53;3.40;99.90
30572;DHT22;17348;50.948;10.696;2024-01-16T11:29:55;3.40;99.90
30572;DHT22;17348;50.948;10.696;2024-01-16T11:33:00;3.40;99.90
30572;DHT22;17348;50.948;10.696;2024-01-16T11:36:04;3.30;99.90
30572;DHT22;17348;50.948;10.696;2024-01-16T11:39:07;3.30;99.90
30572;DHT22;17348;50.948;10.696;2024-01-16T11:42:25;3.30;99.90
30572;DHT22;17348;50.948;10.696;2024-01-16T11:45:49;3.30;99.90
30572;DHT22;17348;50.948;10.696;2024-01-16T11:49:02;3.40;99.90
30572;DHT22;17348;50.948;10.696;2024-01-16T11:52:06;3.40;99.90
30572;DHT22;17348;50.948;10.696;2024-01-16T11:55:30;3.40;99.90
30572;DHT22;17348;50.948;10.696;2024-01-16T11:58:45;3.40;99.90
30572;DHT22;17348;50.948;10.696;2024-01-16T12:01:51;3.30;99.90
30572;DHT22;17348;50.948;10.696;2024-01-16T12:04:54;3.30;99.90
30572;DHT22;17348;50.948;10.696;2024-01-16T12:07:59;3.20;99.90
30572;DHT22;17348;50.948;10.696;2024-01-16T12:11:04;3.20;99.90
30572;DHT22;17348;50.948;10.696;2024-01-16T12:14:07;3.20;99.90
30572;DHT22;17348;50.948;10.696;2024-01-16T12:17:10;3.20;99.90
30572;DHT22;17348;50.948;10.696;2024-01-16T12:20:17;3.10;99.90
30572;DHT22;17348;50.948;10.696;2024-01-16T12:23:21;3.10;99.90
30572;DHT22;17348;50.948;10.696;2024-01-16T12:26:24;3.00;99.90
30572;DHT22;17348;50.948;10.696;2024-01-16T12:29:26;2.90;99.90
30572;DHT22;17348;50.948;10.696;2024-01-16T12:32:30;2.90;99.90
30572;DHT22;17348;50.948;10.696;2024-01-16T12:35:34;3.00;99.90
30572;DHT22;17348;50.948;10.696;2024-01-16T12:38:37;3.00;99.90
30572;DHT22;17348;50.948;10.696;2024-01-16T12:41:42;3.10;99.90
30572;DHT22;17348;50.948;10.696;2024-01-16T12:44:46;3.10;99.90
30572;DHT22;17348;50.948;10.696;2024-01-16T12:47:51;3.00;99.90
30572;DHT22;17348;50.948;10.696;2024-01-16T12:50:59;3.00;99.90
30572;DHT22;17348;50.948;10.696;2024-01-16T12:54:13;2.90;99.90
30572;DHT22;17348;50.948;10.696;2024-01-16T12:57:19;2.90;99.90
30572;DHT22;17348;50.948;10.696;2024-01-16T13:00:25;3.00;99.90
30572;DHT22;17348;50.948;10.696;2024-01-16T13:03:28;2.90;99.90
30572;DHT22;17348;50.948;10.696;2024-01-16T13:06:31;2.90;99.90
30572;DHT22;17348;50.948;10.696;2024-01-16T13:09:35;2.90;99.90
30572;DHT22;17348;50.948;10.696;2024-01-16T13:12:38;2.90;99.90
30572;DHT22;17348;50.948;10.696;2024-01-16T13:15:40;2.90;99.90
30572;DHT22;17348;50.948;10.696;2024-01-16T13:18:44;2.90;99.90
30572;DHT22;17348;50.948;10.696;2024-01-16T13:21:46;2.90;99.90
30572;DHT22;17348;50.948;10.696;2024-01-16T13:24:50;3.00;99.90
30572;DHT22;17348;50.948;10.696;2024-01-16T13:27:52;2.90;99.90
30572;DHT22;17348;50.948;10.696;2024-01-16T13:30:55;2.90;99.90
30572;DHT22;17348;50.948;10.696;2024-01-16T13:33:58;2.90;99.90
30572;DHT22;17348;50.948;10.696;2024-01-16T13:37:02;2.80;99.90
30572;DHT22;17348;50.948;10.696;2024-01-16T13:40:07;2.80;99.90
30572;DHT22;17348;50.948;10.696;2024-01-16T13:43:11;2.70;99.90
30572;DHT22;17348;50.948;10.696;2024-01-16T13:46:13;2.70;99.90
30572;DHT22;17348;50.948;10.696;2024-01-16T13:49:18;2.70;99.90
30572;DHT22;17348;50.948;10.696;2024-01-16T13:52:20;2.70;99.90
30572;DHT22;17348;50.948;10.696;2024-01-16T13:55:24;2.70;99.90
30572;DHT22;17348;50.948;10.696;2024-01-16T13:58:27;2.80;99.90
30572;DHT22;17348;50.948;10.696;2024-01-16T14:01:29;2.70;99.90
30572;DHT22;17348;50.948;10.696;2024-01-16T14:04:32;2.80;99.90
30572;DHT22;17348;50.948;10.696;2024-01-16T14:07:34;2.70;99.90
30572;DHT22;17348;50.948;10.696;2024-01-16T14:10:38;2.70;99.90
30572;DHT22;17348;50.948;10.696;2024-01-16T14:13:40;2.70;99.90
30572;DHT22;17348;50.948;10.696;2024-01-16T14:16:44;2.70;99.90
30572;DHT22;17348;50.948;10.696;2024-01-16T14:19:50;2.60;99.90
30572;DHT22;17348;50.948;10.696;2024-01-16T14:22:52;2.60;99.90
30572;DHT22;17348;50.948;10.696;2024-01-16T14:25:56;2.60;99.90
30572;DHT22;17348;50.948;10.696;2024-01-16T14:29:00;2.60;99.90
30572;DHT22;17348;50.948;10.696;2024-01-16T14:32:03;2.50;99.90
30572;DHT22;17348;50.948;10.696;2024-01-16T14:35:05;2.50;99.90
30572;DHT22;17348;50.948;10.696;2024-01-16T14:38:08;2.40;99.90
30572;DHT22;17348;50.948;10.696;2024-01-16T14:41:13;2.40;99.90
30572;DHT22;17348;50.948;10.696;2024-01-16T14:44:15;2.40;99.90
30572;DHT22;17348;50.948;10.696;2024-01-16T14:47:17;2.30;99.90
30572;DHT22;17348;50.948;10.696;2024-01-16T14:50:20;2.30;99.90
30572;DHT22;17348;50.948;10.696;2024-01-16T14:53:25;2.30;99.90
30572;DHT22;17348;50.948;10.696;2024-01-16T14:56:28;2.20;99.90
30572;DHT22;17348;50.948;10.696;2024-01-16T14:59:31;2.20;99.90
30572;DHT22;17348;50.948;10.696;2024-01-16T15:02:33;2.20;99.90
30572;DHT22;17348;50.948;10.696;2024-01-16T15:05:36;2.10;99.90
30572;DHT22;17348;50.948;10.696;2024-01-16T15:08:38;2.10;99.90
30572;DHT22;17348;50.948;10.696;2024-01-16T15:11:42;2.10;99.90
30572;DHT22;17348;50.948;10.696;2024-01-16T15:14:45;2.00;99.90
30572;DHT22;17348;50.948;10.696;2024-01-16T15:17:47;2.00;99.90
30572;DHT22;17348;50.948;10.696;2024-01-16T15:20:53;2.00;99.90
30572;DHT22;17348;50.948;10.696;2024-01-16T15:23:56;1.90;99.90
30572;DHT22;17348;50.948;10.696;2024-01-16T15:27:00;1.90;99.90
30572;DHT22;17348;50.948;10.696;2024-01-16T15:30:02;1.90;99.90
30572;DHT22;17348;50.948;10.696;2024-01-16T15:33:05;1.90;99.90
30572;DHT22;17348;50.948;10.696;2024-01-16T15:36:07;1.80;99.90
30572;DHT22;17348;50.948;10.696;2024-01-16T15:39:10;1.80;99.90
30572;DHT22;17348;50.948;10.696;2024-01-16T15:42:14;1.80;99.90
30572;DHT22;17348;50.948;10.696;2024-01-16T15:45:18;1.70;99.90
30572;DHT22;17348;50.948;10.696;2024-01-16T15:48:21;1.70;99.90
30572;DHT22;17348;50.948;10.696;2024-01-16T15:51:23;1.70;99.90
30572;DHT22;17348;50.948;10.696;2024-01-16T15:54:26;1.60;99.90
30572;DHT22;17348;50.948;10.696;2024-01-16T15:57:30;1.60;99.90
30572;DHT22;17348;50.948;10.696;2024-01-16T16:00:32;1.50;99.90
30572;DHT22;17348;50.948;10.696;2024-01-16T16:03:35;1.50;99.90
30572;DHT22;17348;50.948;10.696;2024-01-16T16:06:37;1.40;99.90
30572;DHT22;17348;50.948;10.696;2024-01-16T16:09:40;1.30;99.90
30572;DHT22;17348;50.948;10.696;2024-01-16T16:12:44;1.30;99.90
30572;DHT22;17348;50.948;10.696;2024-01-16T16:15:47;1.20;99.90
30572;DHT22;17348;50.948;10.696;2024-01-16T16:18:49;1.10;99.90
30572;DHT22;17348;50.948;10.696;2024-01-16T16:21:52;1.00;99.90
30572;DHT22;17348;50.948;10.696;2024-01-16T16:24:54;1.00;99.90
30572;DHT22;17348;50.948;10.696;2024-01-16T16:27:59;0.90;99.90
30572;DHT22;17348;50.948;10.696;2024-01-16T16:31:03;0.90;99.90
30572;DHT22;17348;50.948;10.696;2024-01-16T16:34:07;0.90;99.90
30572;DHT22;17348;50.948;10.696;2024-01-16T16:37:11;0.90;99.90
30572;DHT22;17348;50.948;10.696;2024-01-16T16:40:15;0.90;99.90
30572;DHT22;17348;50.948;10.696;2024-01-16T16:43:19;0.90;99.90
30572;DHT22;17348;50.948;10.696;2024-01-16T16:46:23;0.80;99.90
30572;DHT22;17348;50.948;10.696;2024-01-16T16:49:25;0.80;99.90
30572;DHT22;17348;50.948;10.696;2024-01-16T16:52:28;0.80;99.90
30572;DHT22;17348;50.948;10.696;2024-01-16T16:55:30;0.70;99.90
30572;DHT22;17348;50.948;10.696;2024-01-16T16:58:34;0.60;99.90
30572;DHT22;17348;50.948;10.696;2024-01-16T17:01:36;0.60;99.90
30572;DHT22;17348;50.948;10.696;2024-01-16T17:04:39;0.50;99.90
30572;DHT22;17348;50.948;10.696;2024-01-16T17:07:42;0.40;99.90
30572;DHT22;17348;50.948;10.696;2024-01-16T17:10:45;0.30;99.90
30572;DHT22;17348;50.948;10.696;2024-01-16T17:13:49;0.30;99.90
30572;DHT22;17348;50.948;10.696;2024-01-16T17:16:51;0.20;99.90
30572;DHT22;17348;50.948;10.696;2024-01-16T17:19:53;0.20;99.90
30572;DHT22;17348;50.948;10.696;2024-01-16T17:22:56;0.10;99.90
30572;DHT22;17348;50.948;10.696;2024-01-16T17:25:58;0.00;99.90
30572;DHT22;17348;50.948;10.696;2024-01-16T17:29:03;0.00;99.90
30572;DHT22;17348;50.948;10.696;2024-01-16T17:32:06;-0.10;99.90
30572;DHT22;17348;50.948;10.696;2024-01-16T17:35:08;-0.10;99.90
30572;DHT22;17348;50.948;10.696;2024-01-16T17:38:14;-0.20;99.90
30572;DHT22;17348;50.948;10.696;2024-01-16T17:41:19;-0.20;99.90
30572;DHT22;17348;50.948;10.696;2024-01-16T17:44:27;-0.30;99.90
30572;DHT22;17348;50.948;10.696;2024-01-16T17:47:37;-0.40;99.90
30572;DHT22;17348;50.948;10.696;2024-01-16T17:50:39;-0.40;99.90
30572;DHT22;17348;50.948;10.696;2024-01-16T17:53:41;-0.40;99.90
30572;DHT22;17348;50.948;10.696;2024-01-16T17:56:45;-0.50;99.90
30572;DHT22;17348;50.948;10.696;2024-01-16T17:59:50;-0.50;99.90
30572;DHT22;17348;50.948;10.696;2024-01-16T18:02:52;-0.50;99.90
30572;DHT22;17348;50.948;10.696;2024-01-16T18:05:55;-0.50;99.90
30572;DHT22;17348;50.948;10.696;2024-01-16T18:09:00;-0.60;99.90
30572;DHT22;17348;50.948;10.696;2024-01-16T18:12:10;-0.60;99.90
30572;DHT22;17348;50.948;10.696;2024-01-16T18:15:16;-0.50;99.90
30572;DHT22;17348;50.948;10.696;2024-01-16T18:18:19;-0.60;99.90
30572;DHT22;17348;50.948;10.696;2024-01-16T18:21:22;-0.60;99.90
30572;DHT22;17348;50.948;10.696;2024-01-16T18:24:24;-0.50;99.90
30572;DHT22;17348;50.948;10.696;2024-01-16T18:27:27;-0.60;99.90
30572;DHT22;17348;50.948;10.696;2024-01-16T18:30:31;-0.60;99.90
30572;DHT22;17348;50.948;10.696;2024-01-16T18:33:35;-0.50;99.90
30572;DHT22;17348;50.948;10.696;2024-01-16T18:36:39;-0.50;99.90
30572;DHT22;17348;50.948;10.696;2024-01-16T18:39:41;-0.50;99.90
30572;DHT22;17348;50.948;10.696;2024-01-16T18:42:44;-0.50;99.90
30572;DHT22;17348;50.948;10.696;2024-01-16T18:45:50;-0.50;99.90
30572;DHT22;17348;50.948;10.696;2024-01-16T18:48:52;-0.50;99.90
30572;DHT22;17348;50.948;10.696;2024-01-16T18:51:58;-0.50;99.90
30572;DHT22;17348;50.948;10.696;2024-01-16T18:55:01;-0.40;99.90
30572;DHT22;17348;50.948;10.696;2024-01-16T18:58:10;-0.50;99.90
30572;DHT22;17348;50.948;10.696;2024-01-16T19:01:14;-0.50;99.90
30572;DHT22;17348;50.948;10.696;2024-01-16T19:04:16;-0.50;99.90
30572;DHT22;17348;50.948;10.696;2024-01-16T19:07:21;-0.40;99.90
30572;DHT22;17348;50.948;10.696;2024-01-16T19:10:24;-0.50;99.90
30572;DHT22;17348;50.948;10.696;2024-01-16T19:13:28;-0.50;99.90
30572;DHT22;17348;50.948;10.696;2024-01-16T19:16:33;-0.50;99.90